Time;durP1;ratioP1;P1;durP2;ratioP2;P2;SDS_P1;SDS_P2;PMS_P1;PMS_P2;Temp;Humidity;BMP_temperature;BMP_pressure;BME280_temperature;BME280_humidity;BME280_pressure;Samples;Min_cycle;Max_cycle;Signal;HPM_P1;HPM_P2
2022/10/26 04:01:03;;;;;;;13.13;7.67;;;13.50;99.90;;;;;;5689716;23;20536;-61
2022/10/26 04:03:29;;;;;;;13.47;7.73;;;13.50;99.90;;;;;;4975674;28;20478;-62
2022/10/26 04:05:56;;;;;;;7.70;7.00;;;13.40;99.90;;;;;;4975646;28;20455;-62
2022/10/26 04:08:23;;;;;;;11.43;7.10;;;13.40;99.90;;;;;;4976082;28;20794;-62
2022/10/26 04:10:50;;;;;;;8.30;7.53;;;13.40;99.90;;;;;;4975656;28;20536;-61
2022/10/26 04:13:16;;;;;;;8.47;7.37;;;13.40;99.90;;;;;;4975997;28;20455;-61
2022/10/26 04:15:43;;;;;;;8.70;7.80;;;13.40;99.90;;;;;;4979087;28;20450;-62
2022/10/26 04:18:11;;;;;;;9.37;7.67;;;13.40;99.90;;;;;;4977831;28;20454;-61
2022/10/26 04:20:40;;;;;;;8.90;7.30;;;13.40;99.90;;;;;;4976348;28;20517;-62
2022/10/26 04:23:10;;;;;;;9.03;7.33;;;13.40;99.90;;;;;;4975360;28;20477;-62
2022/10/26 04:25:37;;;;;;;8.00;7.30;;;13.50;99.90;;;;;;4975964;28;20521;-63
2022/10/26 04:28:05;;;;;;;8.80;7.00;;;13.50;99.90;;;;;;4976089;28;20451;-62
2022/10/26 04:30:33;;;;;;;7.13;6.47;;;13.60;99.90;;;;;;4975399;28;20478;-62
2022/10/26 04:33:00;;;;;;;13.57;6.43;;;13.60;99.90;;;;;;4975433;28;20803;-61
2022/10/26 04:35:28;;;;;;;6.07;5.50;;;13.70;99.90;;;;;;4975232;28;20948;-61
2022/10/26 04:37:58;;;;;;;6.57;5.97;;;13.70;99.90;;;;;;4975428;28;20455;-63
2022/10/26 04:40:25;;;;;;;7.40;4.67;;;13.80;99.90;;;;;;4975150;28;20504;-62
2022/10/26 04:42:52;;;;;;;6.10;5.60;;;13.80;99.90;;;;;;4975736;28;20455;-62
2022/10/26 04:45:18;;;;;;;6.47;5.30;;;13.90;99.90;;;;;;4975108;28;20455;-62
2022/10/26 04:47:45;;;;;;;6.77;5.90;;;13.90;99.90;;;;;;4975288;28;20501;-61
2022/10/26 04:50:13;;;;;;;5.40;4.50;;;13.90;99.90;;;;;;4974937;28;20866;-61
2022/10/26 04:52:41;;;;;;;5.27;4.67;;;13.80;99.90;;;;;;4975280;28;20857;-61
2022/10/26 04:55:08;;;;;;;5.90;5.00;;;13.80;99.90;;;;;;4975340;28;20473;-62
2022/10/26 04:57:35;;;;;;;5.67;4.53;;;13.70;99.90;;;;;;4976439;28;20454;-63
2022/10/26 05:00:05;;;;;;;6.10;4.67;;;13.70;99.90;;;;;;4975232;28;20457;-63
2022/10/26 05:02:31;;;;;;;6.00;4.60;;;13.70;99.90;;;;;;4975021;28;20533;-63
2022/10/26 05:04:58;;;;;;;8.60;4.53;;;13.70;99.90;;;;;;4976975;28;20891;-64
2022/10/26 05:07:24;;;;;;;5.47;4.40;;;13.70;99.90;;;;;;4984604;28;20450;-62
2022/10/26 05:09:53;;;;;;;6.20;4.00;;;13.70;99.90;;;;;;4987659;28;20455;-64
2022/10/26 05:12:19;;;;;;;9.10;4.67;;;13.70;99.90;;;;;;4986375;28;20467;-63
2022/10/26 05:14:46;;;;;;;7.10;4.57;;;13.70;99.90;;;;;;4978256;28;20462;-64
2022/10/26 05:17:12;;;;;;;8.10;4.10;;;13.70;99.90;;;;;;4975290;28;20455;-64
2022/10/26 05:19:39;;;;;;;6.07;5.07;;;13.70;99.90;;;;;;4975607;28;20506;-65
2022/10/26 05:22:06;;;;;;;6.17;4.97;;;13.70;99.90;;;;;;4975053;28;20475;-64
2022/10/26 05:24:33;;;;;;;6.43;4.37;;;13.70;99.90;;;;;;4978032;28;20474;-66
2022/10/26 05:27:01;;;;;;;7.63;5.37;;;13.70;99.90;;;;;;4975880;28;20462;-65
2022/10/26 05:29:27;;;;;;;8.70;5.50;;;13.70;99.90;;;;;;4975696;28;20454;-66
2022/10/26 05:31:54;;;;;;;9.83;4.83;;;13.70;99.90;;;;;;4975243;28;20541;-66
2022/10/26 05:34:21;;;;;;;6.87;5.10;;;13.80;99.90;;;;;;4975275;28;20513;-65
2022/10/26 05:36:47;;;;;;;14.30;5.00;;;13.70;99.90;;;;;;4975362;28;20517;-65
2022/10/26 05:39:14;;;;;;;6.03;4.73;;;13.80;99.90;;;;;;4978575;28;20459;-66
2022/10/26 05:41:40;;;;;;;7.27;5.00;;;13.80;99.90;;;;;;4978763;28;20482;-66
2022/10/26 05:44:08;;;;;;;7.70;4.60;;;13.80;99.90;;;;;;4978465;28;20529;-66
2022/10/26 05:46:35;;;;;;;5.40;4.73;;;13.80;99.90;;;;;;4978139;28;20509;-65
2022/10/26 05:49:02;;;;;;;6.87;5.00;;;13.90;99.90;;;;;;4978062;28;20869;-65
2022/10/26 05:51:28;;;;;;;7.07;5.33;;;13.90;99.90;;;;;;4978001;28;20470;-65
2022/10/26 05:53:55;;;;;;;7.20;4.70;;;14.00;99.90;;;;;;4978089;28;20451;-65
2022/10/26 05:56:36;;;;;;;6.30;4.80;;;14.00;99.90;;;;;;4977953;28;20797;-66
2022/10/26 05:59:04;;;;;;;5.47;4.97;;;14.00;99.90;;;;;;4977886;28;20455;-67
2022/10/26 06:01:40;;;;;;;5.97;4.80;;;14.00;99.90;;;;;;4977416;28;20854;-66
2022/10/26 06:04:20;;;;;;;6.37;5.23;;;14.00;99.90;;;;;;4977816;28;20470;-65
2022/10/26 06:06:50;;;;;;;6.87;5.07;;;14.10;99.90;;;;;;4977744;28;20968;-65
2022/10/26 06:09:17;;;;;;;10.80;4.90;;;14.10;99.90;;;;;;4977907;28;20458;-66
2022/10/26 06:11:44;;;;;;;6.30;4.83;;;14.10;99.90;;;;;;4977677;28;20533;-66
2022/10/26 06:14:11;;;;;;;5.30;4.60;;;14.10;99.90;;;;;;4977388;28;20930;-65
2022/10/26 06:16:51;;;;;;;6.60;4.20;;;14.20;99.90;;;;;;4977277;28;21000;-66
2022/10/26 06:19:33;;;;;;;4.60;4.20;;;14.30;99.90;;;;;;4977861;28;20451;-65
2022/10/26 06:22:11;;;;;;;6.80;4.77;;;14.30;99.90;;;;;;4977701;28;20487;-65
2022/10/26 06:24:46;;;;;;;6.03;5.37;;;14.40;99.90;;;;;;4977459;28;20513;-65
2022/10/26 06:27:23;;;;;;;7.80;5.10;;;14.50;99.90;;;;;;4978061;28;20442;-66
2022/10/26 06:29:57;;;;;;;7.93;4.80;;;14.50;99.90;;;;;;4977835;28;20442;-66
2022/10/26 06:32:25;;;;;;;6.17;5.47;;;14.60;99.90;;;;;;4977624;28;20478;-66
2022/10/26 06:34:59;;;;;;;6.27;4.70;;;14.60;99.90;;;;;;4977159;28;20447;-66
2022/10/26 06:37:28;;;;;;;5.33;4.83;;;14.60;99.90;;;;;;4976920;28;20912;-65
2022/10/26 06:39:57;;;;;;;9.13;5.60;;;14.50;99.90;;;;;;4977066;28;20463;-65
2022/10/26 06:42:24;;;;;;;6.83;5.20;;;14.60;99.90;;;;;;4976942;28;20542;-65
2022/10/26 06:44:51;;;;;;;8.90;4.67;;;14.60;99.90;;;;;;4976879;28;20537;-66
2022/10/26 06:47:25;;;;;;;9.53;4.00;;;14.60;99.90;;;;;;4976944;28;20462;-65
2022/10/26 06:50:02;;;;;;;7.67;5.03;;;14.70;99.90;;;;;;4976260;28;20478;-66
2022/10/26 06:52:35;;;;;;;7.13;5.37;;;14.70;99.90;;;;;;4976535;28;20973;-65
2022/10/26 06:55:03;;;;;;;6.13;5.00;;;14.70;99.90;;;;;;4976817;28;20431;-66
2022/10/26 06:57:34;;;;;;;5.47;4.90;;;14.80;99.90;;;;;;4976889;28;20497;-65
2022/10/26 07:00:05;;;;;;;10.40;5.63;;;14.90;99.90;;;;;;4977648;28;20514;-65
2022/10/26 07:02:32;;;;;;;8.37;5.50;;;14.90;99.90;;;;;;4976337;28;20574;-65
2022/10/26 07:05:00;;;;;;;7.77;5.13;;;14.90;99.90;;;;;;4977027;28;20533;-66
2022/10/26 07:07:28;;;;;;;5.73;5.03;;;15.00;99.90;;;;;;4976620;28;20459;-66
2022/10/26 07:09:55;;;;;;;8.00;5.30;;;15.00;99.90;;;;;;4976575;28;20454;-65
2022/10/26 07:12:22;;;;;;;5.90;5.40;;;15.00;99.90;;;;;;4976410;28;20525;-66
2022/10/26 07:14:48;;;;;;;7.23;5.30;;;15.10;99.90;;;;;;4977000;28;20513;-66
2022/10/26 07:17:15;;;;;;;5.50;5.10;;;15.10;99.90;;;;;;4976063;28;20847;-66
2022/10/26 07:19:43;;;;;;;7.33;5.57;;;15.20;99.90;;;;;;4976353;28;20461;-66
2022/10/26 07:22:11;;;;;;;5.60;5.10;;;15.20;99.90;;;;;;4976176;28;20553;-66
2022/10/26 07:24:39;;;;;;;14.57;5.20;;;15.20;99.90;;;;;;4976324;28;20478;-66
2022/10/26 07:27:06;;;;;;;11.80;5.40;;;15.20;99.90;;;;;;4976201;28;20463;-66
2022/10/26 07:29:34;;;;;;;10.17;5.20;;;15.30;99.90;;;;;;4976141;28;20454;-66
2022/10/26 07:32:00;;;;;;;8.83;4.00;;;15.30;99.90;;;;;;4975984;28;21060;-66
2022/10/26 07:34:27;;;;;;;6.80;4.70;;;15.30;99.90;;;;;;4976124;28;20450;-66
2022/10/26 07:36:54;;;;;;;4.47;4.07;;;15.30;99.90;;;;;;4976059;28;20517;-66
2022/10/26 07:39:22;;;;;;;8.20;4.30;;;15.30;99.90;;;;;;4976060;28;20517;-66
2022/10/26 07:41:49;;;;;;;11.57;4.80;;;15.30;99.90;;;;;;4975842;28;20486;-66
2022/10/26 07:44:15;;;;;;;4.33;3.93;;;15.40;99.90;;;;;;4975835;28;20506;-66
2022/10/26 07:46:42;;;;;;;4.30;3.90;;;15.40;99.90;;;;;;4975948;28;20505;-66
2022/10/26 07:49:08;;;;;;;7.60;4.70;;;15.40;99.90;;;;;;4975751;28;20485;-66
2022/10/26 07:51:35;;;;;;;7.17;4.20;;;15.40;99.90;;;;;;4975367;28;20478;-65
2022/10/26 07:54:02;;;;;;;7.30;4.13;;;15.30;99.90;;;;;;4975499;28;20517;-66
2022/10/26 07:56:30;;;;;;;5.23;4.73;;;15.40;99.90;;;;;;4975602;28;20461;-65
2022/10/26 07:58:57;;;;;;;6.70;4.47;;;15.30;99.90;;;;;;4975639;28;20490;-66
2022/10/26 08:01:25;;;;;;;7.50;6.70;;;15.30;99.90;;;;;;4975285;28;20482;-65
2022/10/26 08:03:52;;;;;;;15.63;9.80;;;15.40;99.90;;;;;;4975229;28;20954;-66
2022/10/26 08:06:18;;;;;;;6.70;6.10;;;15.40;99.90;;;;;;4975491;28;20461;-65
2022/10/26 08:08:46;;;;;;;5.80;4.77;;;15.50;99.90;;;;;;4976100;28;20459;-65
2022/10/26 08:11:13;;;;;;;7.07;5.13;;;15.60;99.90;;;;;;4975570;28;20476;-66
2022/10/26 08:13:41;;;;;;;4.30;3.83;;;15.60;99.90;;;;;;4975913;28;20509;-67
2022/10/26 08:16:08;;;;;;;6.27;4.73;;;15.70;99.90;;;;;;4976255;28;20497;-67
2022/10/26 08:18:35;;;;;;;9.47;4.50;;;15.80;99.90;;;;;;4976700;28;20466;-67
2022/10/26 08:21:03;;;;;;;7.03;5.10;;;15.80;99.90;;;;;;4975852;28;20498;-66
2022/10/26 08:23:29;;;;;;;6.57;4.30;;;15.90;99.90;;;;;;4975364;28;20873;-66
2022/10/26 08:25:58;;;;;;;4.53;3.50;;;16.00;99.90;;;;;;4974988;28;20815;-66
2022/10/26 08:28:25;;;;;;;5.27;3.40;;;16.10;99.90;;;;;;4975202;28;20465;-66
2022/10/26 08:30:53;;;;;;;5.20;3.50;;;16.20;99.90;;;;;;4975015;28;20478;-66
2022/10/26 08:33:20;;;;;;;6.70;3.83;;;16.30;99.90;;;;;;4975211;28;20466;-66
2022/10/26 08:35:47;;;;;;;5.40;3.70;;;16.50;99.90;;;;;;4974634;28;20997;-66
2022/10/26 08:38:13;;;;;;;9.90;4.03;;;16.70;99.90;;;;;;4975009;28;20458;-67
2022/10/26 08:40:42;;;;;;;4.17;3.30;;;16.80;99.90;;;;;;4974571;28;20986;-66
2022/10/26 08:43:16;;;;;;;5.83;3.60;;;17.00;99.90;;;;;;4974679;28;20960;-68
2022/10/26 08:45:47;;;;;;;7.97;3.17;;;17.10;99.90;;;;;;4974707;28;20471;-67
2022/10/26 08:48:18;;;;;;;5.03;3.80;;;17.20;99.90;;;;;;4974859;28;20443;-67
2022/10/26 08:50:49;;;;;;;4.70;3.57;;;17.20;99.90;;;;;;4974777;28;20478;-68
2022/10/26 08:53:23;;;;;;;4.67;3.20;;;17.30;99.90;;;;;;4974604;28;20835;-68
2022/10/26 08:55:53;;;;;;;10.63;3.50;;;17.30;99.90;;;;;;4974708;28;20439;-67
2022/10/26 08:58:23;;;;;;;8.43;3.83;;;17.40;99.90;;;;;;4974970;28;20482;-68
2022/10/26 09:00:51;;;;;;;3.87;3.43;;;17.50;99.90;;;;;;4974443;28;20541;-68
2022/10/26 09:03:20;;;;;;;4.43;3.37;;;17.50;99.90;;;;;;4974714;28;20782;-69
2022/10/26 09:06:16;;;;;;;5.47;3.20;;;17.50;99.90;;;;;;4975483;28;20478;-69
2022/10/26 09:08:56;;;;;;;6.80;3.30;;;17.60;99.90;;;;;;4974800;28;20868;-68
2022/10/26 09:11:32;;;;;;;4.93;3.07;;;17.70;99.90;;;;;;4974636;28;20486;-67
2022/10/26 09:14:07;;;;;;;3.30;2.67;;;17.90;99.90;;;;;;4978630;28;20451;-67
2022/10/26 09:16:42;;;;;;;5.30;2.87;;;18.00;99.90;;;;;;4978430;28;20442;-68
2022/10/26 09:19:28;;;;;;;5.50;2.53;;;18.40;99.90;;;;;;4978429;28;20446;-68
2022/10/26 09:22:03;;;;;;;5.37;3.13;;;18.70;99.90;;;;;;4978299;28;20703;-67
2022/10/26 09:24:32;;;;;;;3.03;2.60;;;19.10;99.90;;;;;;4978292;28;20458;-69
2022/10/26 09:27:09;;;;;;;15.47;10.00;;;19.50;99.90;;;;;;4978262;28;20454;-69
2022/10/26 09:29:41;;;;;;;8.03;7.23;;;19.80;99.90;;;;;;4979156;28;20913;-68
2022/10/26 09:32:14;;;;;;;4.50;2.67;;;20.10;99.90;;;;;;4978316;28;20478;-68
2022/10/26 09:34:48;;;;;;;5.00;2.40;;;20.40;99.90;;;;;;4978371;28;20446;-68
2022/10/26 09:37:19;;;;;;;6.03;2.70;;;20.80;99.90;;;;;;4978239;28;20457;-68
2022/10/26 09:39:56;;;;;;;6.40;3.20;;;21.50;99.90;;;;;;4977910;28;20913;-67
2022/10/26 09:42:28;;;;;;;2.70;2.27;;;22.20;99.90;;;;;;4978130;28;20557;-67
2022/10/26 09:44:58;;;;;;;5.30;2.53;;;23.20;99.90;;;;;;4978015;28;20842;-66
2022/10/26 09:47:34;;;;;;;4.97;2.70;;;24.20;99.90;;;;;;4977887;28;20454;-65
2022/10/26 09:50:15;;;;;;;2.77;2.57;;;25.20;99.90;;;;;;4978651;28;20497;-67
2022/10/26 09:52:42;;;;;;;3.03;2.33;;;26.50;99.90;;;;;;4977960;28;20446;-66
2022/10/26 09:55:10;;;;;;;6.83;2.67;;;27.90;99.90;;;;;;4977520;28;20866;-66
2022/10/26 09:57:40;;;;;;;7.10;3.40;;;29.00;99.90;;;;;;4977702;28;20455;-67
2022/10/26 10:00:11;;;;;;;6.30;2.50;;;29.80;96.30;;;;;;4977633;28;20459;-67
2022/10/26 10:02:42;;;;;;;5.40;3.10;;;30.20;93.80;;;;;;4977926;28;20478;-67
2022/10/26 10:05:28;;;;;;;4.43;2.80;;;30.00;92.70;;;;;;4977966;28;20553;-66
2022/10/26 10:08:15;;;;;;;4.97;2.40;;;29.40;93.30;;;;;;4977641;28;20442;-66
2022/10/26 10:10:58;;;;;;;6.47;3.13;;;28.30;95.90;;;;;;4977924;28;21044;-66
2022/10/26 10:13:27;;;;;;;7.40;3.03;;;27.60;94.40;;;;;;4977490;28;20443;-67
2022/10/26 10:15:55;;;;;;;6.77;3.00;;;26.90;94.80;;;;;;4977457;28;20483;-66
2022/10/26 10:18:23;;;;;;;3.50;2.60;;;26.20;96.80;;;;;;4977628;28;20454;-66
2022/10/26 10:20:54;;;;;;;7.10;3.10;;;25.60;98.00;;;;;;4977570;28;20475;-66
2022/10/26 10:23:30;;;;;;;5.63;3.57;;;25.00;99.30;;;;;;4976483;28;20439;-67
2022/10/26 10:26:03;;;;;;;6.60;3.43;;;24.30;99.90;;;;;;4977091;28;20462;-67
2022/10/26 10:28:30;;;;;;;4.70;2.40;;;23.90;99.90;;;;;;4977182;28;20480;-67
2022/10/26 10:30:59;;;;;;;5.93;2.60;;;23.60;99.90;;;;;;4977037;28;20478;-67
2022/10/26 10:33:34;;;;;;;4.53;2.77;;;23.40;99.90;;;;;;4977078;28;20505;-66
2022/10/26 10:36:04;;;;;;;3.97;2.73;;;23.20;99.90;;;;;;4976758;28;20973;-66
2022/10/26 10:38:40;;;;;;;4.97;2.63;;;23.00;99.90;;;;;;4976768;28;20458;-66
2022/10/26 10:41:16;;;;;;;8.53;3.03;;;22.90;99.90;;;;;;4977019;28;20482;-65
2022/10/26 10:43:45;;;;;;;5.10;3.10;;;22.80;99.90;;;;;;4979241;28;20439;-66
2022/10/26 10:46:20;;;;;;;4.43;2.70;;;22.80;99.90;;;;;;4984562;28;20482;-66
2022/10/26 10:48:48;;;;;;;6.67;2.90;;;22.80;99.90;;;;;;4984234;28;20489;-67
2022/10/26 10:51:22;;;;;;;7.37;3.10;;;22.80;99.90;;;;;;4985632;28;20494;-67
2022/10/26 10:53:51;;;;;;;7.17;2.90;;;22.70;99.90;;;;;;4977900;28;20435;-66
2022/10/26 10:56:34;;;;;;;5.60;2.80;;;22.80;99.90;;;;;;4976943;28;20451;-66
2022/10/26 10:59:19;;;;;;;5.33;3.10;;;23.10;99.90;;;;;;4976982;28;20446;-66
2022/10/26 11:01:54;;;;;;;8.03;2.70;;;23.20;99.90;;;;;;4976401;28;20856;-66
2022/10/26 11:04:46;;;;;;;6.60;3.60;;;23.40;99.90;;;;;;4976636;28;20489;-66
2022/10/26 11:07:16;;;;;;;4.97;2.90;;;23.70;99.90;;;;;;4976497;28;20438;-66
2022/10/26 11:09:46;;;;;;;5.00;2.53;;;23.80;99.90;;;;;;4976779;28;20454;-67
2022/10/26 11:12:16;;;;;;;6.63;3.00;;;23.90;99.90;;;;;;4976218;28;20475;-66
2022/10/26 11:14:46;;;;;;;5.17;2.80;;;24.00;99.90;;;;;;4976383;28;21005;-66
2022/10/26 11:17:20;;;;;;;3.60;2.70;;;24.10;99.90;;;;;;4976366;28;20548;-66
2022/10/26 11:19:53;;;;;;;4.03;2.37;;;24.30;99.90;;;;;;4976291;28;20489;-66
2022/10/26 11:22:26;;;;;;;3.00;2.70;;;24.50;99.90;;;;;;4976238;28;20475;-65
2022/10/26 11:24:59;;;;;;;5.70;2.57;;;24.60;99.90;;;;;;4975971;28;20439;-66
2022/10/26 11:27:30;;;;;;;4.93;2.10;;;24.60;99.90;;;;;;4976131;28;20439;-66
2022/10/26 11:30:02;;;;;;;5.70;2.33;;;24.60;99.90;;;;;;4976095;28;20494;-66
2022/10/26 11:32:34;;;;;;;4.50;2.57;;;24.60;99.90;;;;;;4976095;28;20890;-66
2022/10/26 11:35:10;;;;;;;3.40;2.47;;;24.60;99.90;;;;;;4976702;28;20547;-66
2022/10/26 11:37:45;;;;;;;3.97;2.93;;;24.60;99.90;;;;;;4976244;28;20446;-66
2022/10/26 11:40:22;;;;;;;5.00;2.60;;;24.60;99.90;;;;;;4976820;28;20457;-66
2022/10/26 11:42:53;;;;;;;4.10;2.47;;;24.60;99.90;;;;;;4976018;28;20446;-67
2022/10/26 11:45:24;;;;;;;5.03;2.80;;;24.70;99.90;;;;;;4975411;28;20463;-66
2022/10/26 11:47:53;;;;;;;2.50;2.30;;;24.70;99.90;;;;;;4975298;28;20997;-67
2022/10/26 11:50:22;;;;;;;5.43;2.27;;;24.70;99.90;;;;;;4975312;28;20466;-66
2022/10/26 11:52:56;;;;;;;3.93;2.20;;;24.60;99.90;;;;;;4975592;28;20455;-66
2022/10/26 11:55:23;;;;;;;4.47;2.40;;;24.50;99.90;;;;;;4975616;28;20440;-67
2022/10/26 11:57:51;;;;;;;3.53;1.80;;;24.40;99.90;;;;;;4975135;28;20999;-66
2022/10/26 12:00:19;;;;;;;4.90;2.27;;;24.30;99.90;;;;;;4975305;28;20510;-67
2022/10/26 12:02:49;;;;;;;8.93;3.93;;;24.30;99.90;;;;;;4975222;28;20876;-67
2022/10/26 12:05:25;;;;;;;4.67;1.90;;;24.30;99.90;;;;;;4975117;28;20942;-66
2022/10/26 12:07:57;;;;;;;4.30;2.17;;;24.30;99.90;;;;;;4975477;28;20545;-66
2022/10/26 12:10:29;;;;;;;3.60;1.77;;;24.30;99.90;;;;;;4975195;28;20497;-66
2022/10/26 12:13:02;;;;;;;4.07;2.27;;;24.10;99.90;;;;;;4975392;28;20481;-66
2022/10/26 12:15:35;;;;;;;5.43;2.20;;;24.10;99.90;;;;;;4975436;28;20443;-66
2022/10/26 12:18:13;;;;;;;3.77;2.00;;;23.90;99.90;;;;;;4975299;28;20442;-66
2022/10/26 12:21:01;;;;;;;9.80;2.30;;;23.90;99.90;;;;;;4975241;28;20482;-66
2022/10/26 12:23:30;;;;;;;3.80;1.90;;;23.80;99.90;;;;;;4975386;28;20435;-67
2022/10/26 12:26:30;;;;;;;5.00;2.07;;;23.80;99.90;;;;;;4975181;28;20483;-67
2022/10/26 12:29:35;;;;;;;5.80;2.40;;;23.80;99.90;;;;;;4974744;28;20439;-66
2022/10/26 12:32:02;;;;;;;3.63;1.80;;;23.70;99.90;;;;;;4915217;29;20477;-66
2022/10/26 12:34:58;;;;;;;3.60;1.83;;;23.80;99.90;;;;;;4915243;29;20481;-66
2022/10/26 12:37:35;;;;;;;4.93;2.00;;;23.70;99.90;;;;;;4955422;28;20549;-65
2022/10/26 12:40:41;;;;;;;5.70;1.97;;;23.70;99.90;;;;;;4975036;28;20438;-66
2022/10/26 12:43:37;;;;;;;2.13;1.83;;;23.70;99.90;;;;;;4974875;28;20509;-67
2022/10/26 12:46:44;;;;;;;2.93;2.17;;;23.70;99.90;;;;;;4975200;28;20509;-66
2022/10/26 12:49:58;;;;;;;3.53;2.07;;;23.70;99.90;;;;;;4975472;28;20450;-67
2022/10/26 12:52:40;;;;;;;4.43;2.20;;;23.60;99.90;;;;;;4974942;28;20497;-66
2022/10/26 12:55:56;;;;;;;5.53;2.10;;;23.60;99.90;;;;;;4974906;28;20442;-66
2022/10/26 12:58:46;;;;;;;3.70;2.40;;;23.40;99.90;;;;;;4974740;28;20459;-66
2022/10/26 13:01:51;;;;;;;2.90;2.60;;;23.40;99.90;;;;;;4974432;28;20907;-67
2022/10/26 13:05:18;;;;;;;17.10;4.47;;;23.40;99.90;;;;;;4971955;28;20454;-66
2022/10/26 13:07:45;;;;;;;1.73;1.60;;;23.40;99.90;;;;;;4914786;29;20973;-66
2022/10/26 13:10:21;;;;;;;4.03;2.50;;;23.40;99.90;;;;;;4914861;29;20485;-67
2022/10/26 13:12:52;;;;;;;2.20;2.00;;;23.50;99.90;;;;;;4944821;28;20450;-66
2022/10/26 13:15:25;;;;;;;4.40;2.10;;;23.60;99.90;;;;;;4975404;28;20438;-67
2022/10/26 13:17:59;;;;;;;4.60;2.50;;;23.50;99.90;;;;;;4974544;28;20435;-66
2022/10/26 13:20:26;;;;;;;4.40;1.80;;;23.50;99.90;;;;;;4974269;28;20491;-67
2022/10/26 13:22:53;;;;;;;3.37;2.47;;;23.40;99.90;;;;;;4974529;28;20450;-67
2022/10/26 13:25:24;;;;;;;2.40;1.93;;;23.40;99.90;;;;;;4974636;28;20454;-67
2022/10/26 13:28:01;;;;;;;8.30;2.17;;;23.40;99.90;;;;;;4974589;28;20501;-66
2022/10/26 13:30:47;;;;;;;6.87;2.53;;;23.50;99.90;;;;;;4974561;28;20497;-67
2022/10/26 13:33:21;;;;;;;4.57;2.30;;;23.50;99.90;;;;;;4974733;28;20525;-67
2022/10/26 13:35:49;;;;;;;4.20;2.07;;;23.50;99.90;;;;;;4974465;28;20510;-67
2022/10/26 13:38:20;;;;;;;3.77;2.23;;;23.70;99.90;;;;;;4974487;28;20450;-67
2022/10/26 13:40:47;;;;;;;3.03;2.40;;;23.80;99.90;;;;;;4974445;28;20471;-66
2022/10/26 13:43:21;;;;;;;4.30;2.10;;;23.90;99.90;;;;;;4974493;28;20482;-66
2022/10/26 13:45:54;;;;;;;4.73;2.77;;;23.80;99.90;;;;;;4974281;28;20474;-66
2022/10/26 13:48:30;;;;;;;6.73;2.30;;;23.80;99.90;;;;;;4974167;28;20443;-66
2022/10/26 13:51:01;;;;;;;3.10;2.03;;;23.70;99.90;;;;;;4974559;28;20474;-67
2022/10/26 13:53:39;;;;;;;4.93;2.37;;;23.50;99.90;;;;;;4973830;28;20454;-65
2022/10/26 13:56:15;;;;;;;6.20;2.13;;;23.30;99.90;;;;;;4974213;28;20439;-65
2022/10/26 13:58:48;;;;;;;11.60;2.60;;;23.20;99.90;;;;;;4975731;28;20442;-66
2022/10/26 14:01:20;;;;;;;9.60;2.60;;;23.10;99.90;;;;;;4977358;28;20573;-65
2022/10/26 14:03:48;;;;;;;7.40;2.90;;;23.00;99.90;;;;;;4977662;28;20550;-65
2022/10/26 14:06:19;;;;;;;5.27;2.57;;;23.00;99.90;;;;;;4977538;28;20489;-65
2022/10/26 14:08:48;;;;;;;4.67;2.53;;;23.00;99.90;;;;;;4977641;28;20509;-64
2022/10/26 14:11:18;;;;;;;4.07;1.90;;;22.90;99.90;;;;;;4977510;28;20471;-66
2022/10/26 14:13:48;;;;;;;10.73;2.50;;;22.90;99.90;;;;;;4978210;28;20518;-65
2022/10/26 14:16:19;;;;;;;6.50;2.50;;;22.80;99.90;;;;;;4978458;28;20755;-66
2022/10/26 14:18:48;;;;;;;2.67;1.97;;;22.70;99.90;;;;;;4977155;28;20937;-65
2022/10/26 14:21:17;;;;;;;3.90;2.20;;;22.60;99.90;;;;;;4977316;28;20480;-65
2022/10/26 14:23:49;;;;;;;3.67;2.40;;;22.50;99.90;;;;;;4977427;28;20458;-65
2022/10/26 14:26:21;;;;;;;6.70;2.50;;;22.30;99.90;;;;;;4977616;28;20525;-66
2022/10/26 14:28:50;;;;;;;7.83;2.70;;;22.20;99.90;;;;;;4977201;28;20467;-65
2022/10/26 14:31:24;;;;;;;7.03;2.80;;;22.10;99.90;;;;;;4977045;28;20475;-65
2022/10/26 14:33:51;;;;;;;5.67;2.30;;;22.00;99.90;;;;;;4977077;28;20439;-65
2022/10/26 14:36:21;;;;;;;7.97;2.57;;;21.80;99.90;;;;;;4977101;28;20451;-65
2022/10/26 14:38:52;;;;;;;11.07;2.90;;;21.60;99.90;;;;;;4976925;28;20824;-65
2022/10/26 14:41:19;;;;;;;5.33;2.43;;;21.60;99.90;;;;;;4976686;28;21054;-66
2022/10/26 14:43:46;;;;;;;6.20;2.57;;;21.60;99.90;;;;;;4977046;28;20508;-64
2022/10/26 14:46:17;;;;;;;5.93;2.20;;;21.60;99.90;;;;;;4976822;28;20502;-66
2022/10/26 14:48:53;;;;;;;5.77;3.13;;;21.60;99.90;;;;;;4976722;28;20446;-66
2022/10/26 14:51:21;;;;;;;4.97;2.30;;;21.70;99.90;;;;;;4976764;28;20482;-66
2022/10/26 14:53:50;;;;;;;4.60;2.37;;;21.80;99.90;;;;;;4976761;28;20454;-66
2022/10/26 14:56:27;;;;;;;12.27;3.10;;;21.90;99.90;;;;;;4976602;28;20533;-68
2022/10/26 14:58:55;;;;;;;4.00;2.20;;;21.90;99.90;;;;;;4976683;28;20442;-68
2022/10/26 15:01:28;;;;;;;4.17;2.87;;;22.00;99.90;;;;;;4976590;28;20544;-67
2022/10/26 15:03:57;;;;;;;9.27;2.70;;;22.00;99.90;;;;;;4976505;28;20471;-66
2022/10/26 15:06:40;;;;;;;3.80;2.47;;;22.00;99.90;;;;;;4977493;28;20902;-66
2022/10/26 15:09:30;;;;;;;6.20;2.70;;;22.00;99.90;;;;;;4976796;28;20584;-66
2022/10/26 15:12:01;;;;;;;5.00;2.33;;;22.00;99.90;;;;;;4976268;28;20977;-65
2022/10/26 15:14:28;;;;;;;6.33;2.90;;;22.00;99.90;;;;;;4976891;28;20471;-67
2022/10/26 15:16:57;;;;;;;4.50;2.97;;;22.00;99.90;;;;;;4976703;28;20452;-66
2022/10/26 15:19:26;;;;;;;5.50;2.23;;;21.90;99.90;;;;;;4976494;28;20510;-67
2022/10/26 15:21:54;;;;;;;4.73;2.93;;;21.90;99.90;;;;;;4976189;28;20498;-66
2022/10/26 15:24:34;;;;;;;5.10;2.80;;;21.80;99.90;;;;;;4976337;28;20451;-66
2022/10/26 15:27:03;;;;;;;6.17;3.70;;;21.80;99.90;;;;;;4976252;28;20459;-66
2022/10/26 15:29:39;;;;;;;10.03;2.60;;;21.70;99.90;;;;;;4976118;28;20509;-67
2022/10/26 15:32:18;;;;;;;3.43;2.57;;;21.60;99.90;;;;;;4976066;28;20583;-66
2022/10/26 15:34:48;;;;;;;4.27;2.23;;;21.50;99.90;;;;;;4976168;28;20439;-66
2022/10/26 15:37:15;;;;;;;2.93;2.30;;;21.30;99.90;;;;;;4975661;28;20459;-66
2022/10/26 15:39:43;;;;;;;5.20;2.87;;;21.30;99.90;;;;;;4975899;28;20495;-67
2022/10/26 15:42:13;;;;;;;5.27;2.50;;;21.20;99.90;;;;;;4975709;28;20549;-67
2022/10/26 15:44:40;;;;;;;5.97;3.20;;;21.10;99.90;;;;;;4976020;28;20443;-66
2022/10/26 15:47:17;;;;;;;5.33;2.30;;;21.00;99.90;;;;;;4975645;28;20883;-66
2022/10/26 15:49:44;;;;;;;3.03;2.67;;;20.90;99.90;;;;;;4976444;28;20443;-67
2022/10/26 15:52:11;;;;;;;8.13;2.40;;;20.80;99.90;;;;;;4976706;28;20885;-67
2022/10/26 15:54:37;;;;;;;5.00;2.97;;;20.70;99.90;;;;;;4975480;28;20454;-70
2022/10/26 15:57:06;;;;;;;7.87;2.80;;;20.60;99.90;;;;;;4975658;28;20455;-66
2022/10/26 15:59:33;;;;;;;6.60;3.70;;;20.50;99.90;;;;;;4975812;28;20958;-66
2022/10/26 16:01:59;;;;;;;9.13;3.50;;;20.50;99.90;;;;;;4975134;28;20487;-66
2022/10/26 16:04:26;;;;;;;6.70;3.13;;;20.40;99.90;;;;;;4975260;28;20454;-66
2022/10/26 16:06:57;;;;;;;5.03;3.03;;;20.40;99.90;;;;;;4975672;28;20485;-67
2022/10/26 16:09:24;;;;;;;7.10;3.47;;;20.30;99.90;;;;;;4975785;28;20447;-66
2022/10/26 16:11:50;;;;;;;6.77;3.00;;;20.20;99.90;;;;;;4975630;28;20549;-66
2022/10/26 16:14:18;;;;;;;4.93;3.90;;;20.10;99.90;;;;;;4975332;28;20525;-65
2022/10/26 16:16:45;;;;;;;7.13;3.67;;;20.00;99.90;;;;;;4975289;28;20455;-65
2022/10/26 16:19:12;;;;;;;9.43;2.87;;;19.90;99.90;;;;;;4975392;28;20470;-66
2022/10/26 16:21:40;;;;;;;7.77;2.70;;;19.70;99.90;;;;;;4974589;28;20479;-66
2022/10/26 16:24:07;;;;;;;4.43;2.80;;;19.60;99.90;;;;;;4975149;28;20463;-66
2022/10/26 16:26:34;;;;;;;10.60;2.90;;;19.50;99.90;;;;;;4975172;28;20454;-67
2022/10/26 16:29:00;;;;;;;6.17;2.50;;;19.30;99.90;;;;;;4975789;28;20486;-68
2022/10/26 16:31:28;;;;;;;7.13;2.70;;;19.20;99.90;;;;;;4975230;28;20474;-66
2022/10/26 16:33:55;;;;;;;6.40;3.10;;;19.10;99.90;;;;;;4975158;28;20450;-67
2022/10/26 16:36:22;;;;;;;4.50;3.00;;;19.00;99.90;;;;;;4975158;28;20455;-67
2022/10/26 16:38:48;;;;;;;5.00;2.97;;;18.90;99.90;;;;;;4975247;28;20451;-67
2022/10/26 16:41:16;;;;;;;6.50;2.90;;;18.80;99.90;;;;;;4975103;28;20482;-67
2022/10/26 16:43:45;;;;;;;7.87;3.87;;;18.70;99.90;;;;;;4976034;28;20460;-67
2022/10/26 16:46:14;;;;;;;5.07;2.93;;;18.70;99.90;;;;;;4976036;28;20545;-66
2022/10/26 16:48:44;;;;;;;10.63;3.30;;;18.60;99.90;;;;;;4975234;28;20482;-66
2022/10/26 16:51:12;;;;;;;4.50;3.10;;;18.50;99.90;;;;;;4975094;28;20544;-65
2022/10/26 16:53:40;;;;;;;8.77;3.43;;;18.40;99.90;;;;;;4975290;28;20455;-66
2022/10/26 16:56:08;;;;;;;8.83;3.83;;;18.40;99.90;;;;;;4975202;28;20455;-67
2022/10/26 16:58:35;;;;;;;4.80;3.30;;;18.30;99.90;;;;;;4974660;28;20506;-67
2022/10/26 17:01:02;;;;;;;5.80;3.03;;;18.20;99.90;;;;;;4974843;28;20491;-67
2022/10/26 17:03:28;;;;;;;5.00;2.87;;;18.10;99.90;;;;;;4974946;28;20458;-67
2022/10/26 17:05:58;;;;;;;4.80;3.43;;;18.00;99.90;;;;;;4975100;28;20458;-66
2022/10/26 17:08:25;;;;;;;5.33;3.13;;;18.00;99.90;;;;;;4974623;28;20888;-67